Latest Weather Observations for Wagga Wagga

IDN60801

Issued at 5:22 pm EST Saturday 20 July 2019 (issued every 10 minutes, with the page automatically refreshed every 10 minutes)

About weather observations | Map of weather stations | Latest weather observations for NSW | Other Formats
Station Details ID: 072150 Name: WAGGA WAGGA AMO Lat: -35.16 Lon: 147.46 Height: 212.0 m
Data from the previous 72 hours. | See also: Recent months at Wagga Wagga
Date/Time
EST
Temp
°C
App
Temp
°C
Dew
Point
°C
Rel
Hum
%
Delta-T
°C
Wind Press
QNH
hPa
Press
MSL
hPa
Rain since
9am
mm
Dir  Spd
km/h
Gust
km/h
Spd
kts
Gust
kts
20/05:00pm 12.3 9.9 7.0 70 2.6 ENE 9 13 5 7 1019.2 1019.6 0.0
20/04:30pm 13.0 10.8 7.7 70 2.6 ENE 9 11 5 6 1019.4 1019.8 0.0
20/04:00pm 13.0 10.7 7.5 69 2.7 ENE 9 11 5 6 1019.5 1019.9 0.0
20/03:30pm 14.2 11.8 7.0 62 3.5 ENE 9 15 5 8 1019.6 1020.0 0.0
20/03:00pm 14.2 12.0 7.7 65 3.2 E 9 15 5 8 1019.9 1020.3 0.0
20/02:30pm 14.1 11.5 7.9 66 3.1 E 11 17 6 9 1020.3 1020.7 0.0
20/02:00pm 14.1 11.5 7.6 65 3.2 E 11 15 6 8 1020.6 1021.0 0.0
20/01:30pm 13.0 10.4 7.9 71 2.5 ENE 11 15 6 8 1021.0 1021.4 0.0
20/01:00pm 12.5 9.5 7.6 72 2.4 E 13 17 7 9 1021.3 1021.8 0.0
20/12:30pm 13.2 11.1 8.1 71 2.6 E 9 15 5 8 1021.7 1022.2 0.0
20/12:00pm 12.5 10.4 8.2 75 2.1 ENE 9 13 5 7 1022.4 1022.9 0.0
20/11:30am 12.5 10.5 8.6 77 2.0 ENE 9 13 5 7 1023.0 1023.5 0.0
20/11:00am 11.6 8.6 7.9 78 1.8 ENE 13 15 7 8 1023.3 1023.8 0.0
20/10:30am 10.9 7.9 7.6 80 1.6 E 13 17 7 9 1023.4 1023.9 0.0
20/10:00am 9.9 6.8 7.2 83 1.3 E 13 15 7 8 1023.6 1024.1 0.0
20/09:30am 9.0 5.6 7.6 91 0.7 E 15 19 8 10 1023.8 1024.3 0.0
20/09:00am 7.5 4.4 7.4 99 0.0 E 13 15 7 8 1023.8 1024.3 0.0
20/08:30am 6.4 3.5 6.4 100 0.0 E 11 13 6 7 1023.8 1024.3 0.0
20/08:00am 5.5 2.0 5.5 100 0.0 E 13 13 7 7 1023.7 1024.2 0.0
20/07:30am 4.1 0.3 4.1 100 0.0 ESE 13 13 7 7 1023.7 1024.2 0.0
20/07:00am 3.4 0.8 3.4 100 0.0 ENE 6 7 3 4 1023.7 1024.2 0.0
20/06:30am 4.4 1.8 4.4 100 0.0 E 7 9 4 5 1023.3 1023.8 0.0
20/06:00am 4.1 2.8 4.1 100 0.0 CALM 0 0 0 0 1023.3 1023.8 0.0
20/05:30am 4.4 3.2 4.4 100 0.0 CALM 0 0 0 0 1023.1 1023.6 0.0
20/05:00am 5.2 2.4 5.2 100 0.0 ESE 9 11 5 6 1022.9 1023.4 0.0
20/04:30am 5.9 2.9 5.9 100 0.0 ESE 11 13 6 7 1022.9 1023.4 0.0
20/04:00am 6.4 2.7 6.4 100 0.0 ESE 15 17 8 9 1023.1 1023.6 0.0
20/03:30am 6.4 3.1 6.4 100 0.0 E 13 17 7 9 1023.5 1024.0 0.0
20/03:00am 5.8 4.5 5.8 100 0.0 SE 2 9 1 5 1023.7 1024.2 0.0
20/02:30am 5.3 2.9 5.3 100 0.0 S 7 13 4 7 1023.9 1024.4 0.0
20/02:00am 5.6 4.2 5.6 100 0.0 ENE 2 9 1 5 1023.6 1024.1 0.0
20/01:30am 5.2 3.7 5.2 100 0.0 ESE 2 7 1 4 1023.6 1024.1 0.0
20/01:04am 3.5 2.1 3.5 100 0.0 CALM 0 0 0 0 1023.4 1023.9 0.0
20/01:00am 3.4 2.0 3.4 100 0.0 CALM 0 0 0 0 1023.5 1024.0 0.0
20/12:30am 4.0 2.7 4.0 100 0.0 CALM 0 0 0 0 1023.4 1023.9 0.0
20/12:00am 2.8 1.2 2.7 99 0.0 CALM 0 0 0 0 1023.4 1023.9 0.0
 
Date/Time
EST
Temp
°C
App
Temp
°C
Dew
Point
°C
Rel
Hum
%
Delta-T
°C
Wind Press
QNH
hPa
Press
MSL
hPa
Rain since
9am
mm
Dir  Spd
km/h
Gust
km/h
Spd
kts
Gust
kts
19/11:30pm 3.1 0.3 3.0 99 0.0 ENE 7 9 4 5 1023.4 1023.9 0.0
19/11:00pm 4.3 3.0 4.3 100 0.0 CALM 0 0 0 0 1023.7 1024.2 0.0
19/10:30pm 4.7 3.5 4.7 100 0.0 CALM 0 0 0 0 1023.8 1024.3 0.0
19/10:00pm 4.6 2.1 4.5 99 0.0 ESE 7 7 4 4 1023.8 1024.3 0.0
19/09:30pm 6.8 4.3 6.7 99 0.0 ESE 9 11 5 6 1023.6 1024.1 0.0
19/09:00pm 6.6 4.1 6.6 100 0.0 ESE 9 11 5 6 1023.6 1024.1 0.0
19/08:30pm 6.1 4.8 6.0 99 0.0 ESE 2 9 1 5 1023.5 1024.0 0.0
19/08:00pm 6.2 5.3 5.9 98 0.1 CALM 0 0 0 0 1023.4 1023.9 0.0
19/07:30pm 7.9 7.1 6.7 92 0.6 CALM 0 0 0 0 1023.2 1023.7 0.0
19/07:00pm 9.9 9.1 8.3 90 0.8 E 2 6 1 3 1023.1 1023.6 0.0
19/06:30pm 11.0 9.0 8.8 86 1.1 ESE 9 9 5 5 1022.9 1023.4 0.0
19/06:00pm 11.4 9.8 8.8 84 1.3 ESE 7 9 4 5 1022.7 1023.2 0.0
19/05:30pm 11.6 9.8 8.1 79 1.7 E 7 9 4 5 1022.5 1023.0 0.0
19/05:00pm 11.7 10.2 8.4 80 1.6 SE 6 7 3 4 1022.5 1023.0 0.0
19/04:30pm 12.1 10.3 8.0 76 2.0 ESE 7 9 4 5 1022.3 1022.8 0.0
19/04:00pm 12.2 10.4 7.9 75 2.1 E 7 9 4 5 1022.0 1022.5 0.0
19/03:30pm 12.4 11.9 7.9 74 2.2 CALM 0 2 0 1 1021.9 1022.4 0.0
19/03:00pm 12.5 10.8 7.6 72 2.4 ENE 6 9 3 5 1021.7 1022.2 0.0
19/02:30pm 12.8 10.5 7.5 70 2.6 NNE 9 11 5 6 1021.8 1022.3 0.0
19/02:00pm 12.6 10.4 7.7 72 2.4 ENE 9 13 5 7 1021.6 1022.1 0.0
19/01:33pm 12.0 9.7 7.5 74 2.2 ENE 9 11 5 6 1021.7 1022.2 0.0
19/01:30pm 12.0 10.0 7.1 72 2.4 ENE 7 11 4 6 1021.7 1022.2 0.0
19/01:00pm 11.9 10.4 6.6 70 2.5 SSE 4 7 2 4 1021.9 1022.4 0.0
19/12:30pm 11.5 9.6 6.6 72 2.3 WSW 6 11 3 6 1022.2 1022.7 0.0
19/12:00pm 11.8 9.9 7.5 75 2.1 WSW 7 13 4 7 1022.3 1022.8 0.0
19/11:30am 11.0 8.9 6.6 74 2.1 NW 7 11 4 6 1022.6 1023.1 0.0
19/11:00am 10.2 8.5 5.8 74 2.0 NE 4 7 2 4 1022.9 1023.4 0.0
19/10:30am 8.9 6.9 6.9 87 0.9 NNE 7 9 4 5 1022.9 1023.4 0.0
19/10:00am 8.2 6.9 6.0 86 1.0 ENE 2 7 1 4 1022.9 1023.4 0.0
19/09:30am 7.7 5.7 6.2 90 0.7 E 6 7 3 4 1022.9 1023.4 0.0
19/09:00am 7.3 4.8 6.6 95 0.3 ESE 9 9 5 5 1022.8 1023.3 0.0
19/08:30am 6.8 4.7 6.7 99 0.0 SE 7 9 4 5 1022.5 1023.0 0.0
19/08:00am 6.2 4.9 6.1 99 0.0 E 2 6 1 3 1022.2 1022.7 0.0
19/07:30am 5.8 3.7 5.7 99 0.0 ENE 6 7 3 4 1021.9 1022.4 0.0
19/07:00am 5.6 4.2 5.6 100 0.0 ENE 2 6 1 3 1021.9 1022.4 0.0
19/06:30am 5.1 4.0 5.1 100 0.0 CALM 0 0 0 0 1021.6 1022.1 0.0
19/06:00am 4.7 3.5 4.7 100 0.0 CALM 0 0 0 0 1021.4 1021.9 0.0
19/05:30am 4.7 3.5 4.7 100 0.0 CALM 0 0 0 0 1021.1 1021.5 0.0
19/05:00am 4.6 3.4 4.6 100 0.0 CALM 0 0 0 0 1021.0 1021.4 0.0
19/04:30am 5.1 4.0 5.1 100 0.0 CALM 0 0 0 0 1021.0 1021.4 0.0
19/04:00am 4.8 3.6 4.8 100 0.0 CALM 0 0 0 0 1020.9 1021.3 0.0
19/03:30am 4.5 2.1 4.5 100 0.0 E 6 7 3 4 1020.7 1021.1 0.0
19/03:00am 4.3 2.3 4.3 100 0.0 ENE 4 7 2 4 1021.0 1021.4 0.0
19/02:30am 4.2 2.5 4.2 100 0.0 S 2 7 1 4 1021.0 1021.4 0.0
19/02:00am 3.0 1.5 3.0 100 0.0 CALM 0 0 0 0 1020.8 1021.2 0.0
19/01:30am 0.8 -1.1 0.7 99 0.0 CALM 0 0 0 0 1021.0 1021.4 0.0
19/01:00am 1.0 -0.8 0.9 99 0.0 CALM 0 0 0 0 1020.6 1021.0 0.0
19/12:30am 2.9 0.0 2.8 99 0.0 E 7 7 4 4 1020.5 1020.9 0.0
19/12:00am 2.5 -0.4 2.4 99 0.0 ESE 7 9 4 5 1020.9 1021.3 0.0
 
Date/Time
EST
Temp
°C
App
Temp
°C
Dew
Point
°C
Rel
Hum
%
Delta-T
°C
Wind Press
QNH
hPa
Press
MSL
hPa
Rain since
9am
mm
Dir  Spd
km/h
Gust
km/h
Spd
kts
Gust
kts
18/11:30pm 1.9 -1.1 1.8 99 0.0 S 7 9 4 5 1021.1 1021.5 0.0
18/11:00pm 3.2 1.3 3.1 99 0.0 E 2 6 1 3 1021.0 1021.4 0.0
18/10:30pm 5.0 2.1 4.9 99 0.0 NE 9 11 5 6 1020.8 1021.2 0.0
18/10:00pm 4.1 2.4 4.0 99 0.0 W 2 7 1 4 1021.1 1021.5 0.0
18/09:30pm 4.3 1.9 4.2 99 0.0 SW 6 9 3 5 1021.0 1021.4 0.0
18/09:00pm 5.1 3.9 4.8 98 0.1 CALM 0 4 0 2 1020.7 1021.1 0.0
18/08:30pm 5.3 2.4 4.9 97 0.2 E 9 9 5 5 1020.4 1020.8 0.0
18/08:00pm 5.4 3.0 5.3 99 0.0 E 7 7 4 4 1020.6 1021.0 0.0
18/07:30pm 4.1 1.5 4.0 99 0.0 SSW 7 7 4 4 1020.5 1020.9 0.0
18/07:00pm 3.7 0.4 2.4 91 0.5 SW 9 11 5 6 1020.5 1020.9 0.0
18/06:30pm 5.8 3.2 4.0 88 0.8 WSW 7 7 4 4 1020.0 1020.4 0.0
18/06:00pm 7.1 4.5 4.1 81 1.3 WNW 7 7 4 4 1019.7 1020.1 0.0
18/05:30pm 7.4 4.9 3.8 78 1.6 SW 6 7 3 4 1019.6 1020.0 0.0
18/05:00pm 9.0 4.6 4.6 74 2.0 WNW 17 20 9 11 1019.4 1019.8 0.0
18/04:30pm 10.6 6.2 4.9 68 2.6 W 17 22 9 12 1019.2 1019.6 0.0
18/04:00pm 10.4 6.0 4.8 68 2.5 W 17 19 9 10 1018.9 1019.4 0.0
18/03:30pm 10.4 6.6 5.8 73 2.1 WNW 15 19 8 10 1018.9 1019.4 0.0
18/03:15pm 10.4 6.6 5.8 73 2.1 WNW 15 20 8 11 1018.8 1019.3 0.0
18/03:00pm 10.2 6.0 5.8 74 2.0 W 17 19 9 10 1018.8 1019.3 0.0
18/02:30pm 10.4 7.0 5.8 73 2.1 W 13 19 7 10 1018.8 1019.3 0.0
18/02:00pm 10.7 6.2 6.1 73 2.2 W 19 28 10 15 1019.1 1019.5 0.0
18/01:30pm 10.5 4.3 6.1 74 2.1 W 28 35 15 19 1019.2 1019.6 0.0
18/01:00pm 11.1 5.8 6.6 74 2.1 W 24 32 13 17 1018.9 1019.4 0.0
18/12:30pm 10.6 6.0 6.4 75 2.0 WSW 20 28 11 15 1019.2 1019.6 0.0
18/12:14pm 10.5 6.0 6.8 78 1.8 WSW 20 26 11 14 1019.3 1019.7 0.0
18/12:00pm 10.3 6.0 7.0 80 1.6 WSW 19 26 10 14 1019.5 1019.9 0.0
18/11:42am 9.7 5.6 6.4 80 1.6 W 17 22 9 12 1019.8 1020.2 0.0
18/11:30am 9.7 6.4 8.1 90 0.8 WSW 15 19 8 10 1019.9 1020.3 0.0
18/11:20am 9.2 5.6 6.6 84 1.2 WNW 15 24 8 13 1019.8 1020.2 0.0
18/11:14am 9.2 5.0 7.3 88 0.9 WNW 19 24 10 13 1019.9 1020.3 0.0
18/11:00am 8.6 5.0 6.7 88 0.9 W 15 20 8 11 1020.2 1020.6 0.0
18/10:56am 8.5 5.0 7.0 90 0.7 W 15 19 8 10 1020.3 1020.7 0.0
18/10:54am 8.6 5.1 7.2 91 0.7 W 15 19 8 10 1020.2 1020.6 0.0
18/10:36am 8.5 5.0 7.1 91 0.7 W 15 20 8 11 1020.4 1020.8 0.0
18/10:30am 8.0 4.4 6.8 92 0.6 W 15 19 8 10 1020.5 1020.9 0.0
18/10:00am 7.8 4.3 7.1 95 0.3 W 15 19 8 10 1020.0 1020.4 0.0
18/09:32am 7.6 4.2 7.5 99 0.0 WNW 15 19 8 10 1019.7 1020.1 0.0
18/09:30am 7.4 3.9 7.3 99 0.0 WNW 15 19 8 10 1019.6 1020.0 0.0
18/09:00am 7.4 3.9 7.3 99 0.0 WNW 15 15 8 8 1019.1 1019.5 0.8
18/08:30am 6.7 4.6 6.6 99 0.0 WNW 7 9 4 5 1018.7 1019.2 0.8
18/08:00am 5.7 3.6 5.6 99 0.0 WNW 6 9 3 5 1018.5 1019.0 0.8
18/07:30am 5.3 2.5 5.3 100 0.0 WNW 9 15 5 8 1018.5 1019.0 0.8
18/07:00am 5.4 1.9 5.3 99 0.0 W 13 15 7 8 1018.2 1018.7 0.8
18/06:30am 5.6 1.7 5.5 99 0.0 WSW 15 17 8 9 1018.1 1018.6 0.8
18/06:00am 6.6 2.0 6.5 99 0.0 WSW 20 28 11 15 1018.3 1018.8 0.8
18/05:30am 6.7 3.1 6.6 99 0.0 WSW 15 20 8 11 1018.2 1018.7 0.8
18/05:00am 7.6 4.5 7.2 97 0.2 W 13 19 7 10 1017.9 1018.4 0.6
18/04:30am 8.1 4.6 7.3 95 0.4 WSW 15 24 8 13 1017.5 1018.0 0.6
18/04:00am 8.9 4.5 8.8 99 0.0 WSW 22 30 12 16 1017.1 1017.5 0.6
18/03:30am 8.9 5.8 8.9 100 0.0 W 15 19 8 10 1017.1 1017.5 0.6
18/03:00am 8.9 5.8 8.9 100 0.0 WSW 15 20 8 11 1017.2 1017.6 0.6
18/02:34am 8.9 5.1 8.9 100 0.0 WSW 19 28 10 15 1017.3 1017.8 0.4
18/02:30am 9.0 5.2 9.0 100 0.0 WSW 19 26 10 14 1017.3 1017.8 0.4
18/02:00am 9.2 5.2 9.1 99 0.0 W 20 26 11 14 1017.3 1017.8 0.4
18/01:30am 9.2 4.9 9.2 100 0.0 W 22 30 12 16 1017.3 1017.8 0.4
18/01:00am 9.2 4.9 9.2 100 0.0 W 22 30 12 16 1017.2 1017.6 0.4
18/12:59am 9.2 4.9 9.2 100 0.0 W 22 30 12 16 1017.2 1017.6 0.4
18/12:44am 9.3 5.0 9.3 100 0.0 W 22 28 12 15 1017.2 1017.6 0.4
18/12:34am 9.4 4.7 9.3 99 0.1 W 24 32 13 17 1017.2 1017.6 0.4
18/12:30am 9.4 4.7 9.3 99 0.1 W 24 32 13 17 1017.2 1017.6 0.2
18/12:00am 9.3 5.9 9.2 99 0.0 WNW 17 26 9 14 1017.0 1017.4 0.2
 
Date/Time
EST
Temp
°C
App
Temp
°C
Dew
Point
°C
Rel
Hum
%
Delta-T
°C
Wind Press
QNH
hPa
Press
MSL
hPa
Rain since
9am
mm
Dir  Spd
km/h
Gust
km/h
Spd
kts
Gust
kts
17/11:30pm 9.4 5.5 9.3 99 0.1 W 20 28 11 15 1017.1 1017.5 0.2
17/11:00pm 9.4 5.5 9.3 99 0.0 W 20 28 11 15 1017.3 1017.8 0.2
17/10:30pm 9.5 4.8 9.4 99 0.1 W 24 32 13 17 1017.3 1017.8 0.2
17/10:00pm 9.6 5.7 9.5 99 0.1 W 20 32 11 17 1017.3 1017.8 0.2
17/09:30pm 9.5 4.5 9.4 99 0.1 W 26 33 14 18 1017.3 1017.8 0.2
17/09:23pm 9.6 4.6 9.5 99 0.1 W 26 33 14 18 1017.3 1017.8 0.2
17/09:00pm 9.7 5.8 9.6 99 0.1 W 20 30 11 16 1017.2 1017.6 0.2
17/08:30pm 9.4 6.0 9.3 99 0.1 W 17 20 9 11 1017.3 1017.8 0.2
17/08:08pm 9.1 5.7 9.1 100 0.0 WNW 17 22 9 12 1017.6 1018.1 0.2
17/08:00pm 9.2 5.4 9.2 100 0.0 W 19 26 10 14 1017.6 1018.1 0.2
17/07:45pm 9.3 5.0 9.2 99 0.0 W 22 30 12 16 1017.7 1018.2 0.0
17/07:30pm 10.0 6.5 7.1 82 1.4 WNW 15 22 8 12 1017.5 1018.0 0.0
17/07:00pm 10.2 6.9 6.4 77 1.8 NW 13 15 7 8 1017.1 1017.5 0.0
17/06:30pm 10.3 5.7 6.5 77 1.8 WNW 20 33 11 18 1017.1 1017.5 0.0
17/06:00pm 10.3 7.0 6.3 76 1.9 NW 13 19 7 10 1017.0 1017.4 0.0
17/05:30pm 10.5 7.1 5.9 73 2.2 NW 13 17 7 9 1016.9 1017.3 0.0

Other formats

Comma delimited format used in spreadsheet applications
http://www.bom.gov.au/fwo/IDN60801/IDN60801.94910.axf

JavaScript Object Notation format (JSON) in row-major order
http://www.bom.gov.au/fwo/IDN60801/IDN60801.94910.json

Data quality

Most of these data are generated automatically and are frequently updated. Quality checks on data are not normally performed. It is possible for incorrect values to appear. Refer to information at About Latest Weather Observations and please check the disclaimer before using these data.